sensor_id;sensor_type;location;lat;lon;timestamp;temperature;humidity
72712;SHT30;60828;40.292;17.998;2022-08-18T00:01:22;26.99;67.93
72712;SHT30;60828;40.292;17.998;2022-08-18T00:03:48;26.94;68.19
72712;SHT30;60828;40.292;17.998;2022-08-18T00:06:14;27.02;68.63
72712;SHT30;60828;40.292;17.998;2022-08-18T00:08:40;26.90;69.21
72712;SHT30;60828;40.292;17.998;2022-08-18T00:11:05;27.03;68.98
72712;SHT30;60828;40.292;17.998;2022-08-18T00:13:31;27.02;69.05
72712;SHT30;60828;40.292;17.998;2022-08-18T00:15:57;26.94;69.53
72712;SHT30;60828;40.292;17.998;2022-08-18T00:18:22;26.89;69.15
72712;SHT30;60828;40.292;17.998;2022-08-18T00:20:48;26.89;69.57
72712;SHT30;60828;40.292;17.998;2022-08-18T00:23:13;26.90;69.68
72712;SHT30;60828;40.292;17.998;2022-08-18T00:25:39;26.82;69.70
72712;SHT30;60828;40.292;17.998;2022-08-18T00:28:04;26.82;69.96
72712;SHT30;60828;40.292;17.998;2022-08-18T00:30:30;26.83;69.60
72712;SHT30;60828;40.292;17.998;2022-08-18T00:32:56;26.71;69.78
72712;SHT30;60828;40.292;17.998;2022-08-18T00:35:26;26.73;69.52
72712;SHT30;60828;40.292;17.998;2022-08-18T00:37:53;26.63;69.86
72712;SHT30;60828;40.292;17.998;2022-08-18T00:40:20;26.66;69.74
72712;SHT30;60828;40.292;17.998;2022-08-18T00:42:48;26.65;69.69
72712;SHT30;60828;40.292;17.998;2022-08-18T00:45:15;26.71;69.90
72712;SHT30;60828;40.292;17.998;2022-08-18T00:47:41;26.73;70.26
72712;SHT30;60828;40.292;17.998;2022-08-18T00:50:07;26.56;70.47
72712;SHT30;60828;40.292;17.998;2022-08-18T00:52:32;26.60;70.38
72712;SHT30;60828;40.292;17.998;2022-08-18T00:54:58;26.51;70.74
72712;SHT30;60828;40.292;17.998;2022-08-18T00:57:26;26.41;71.06
72712;SHT30;60828;40.292;17.998;2022-08-18T00:59:53;26.42;70.89
72712;SHT30;60828;40.292;17.998;2022-08-18T01:02:28;26.53;70.44
72712;SHT30;60828;40.292;17.998;2022-08-18T01:05:03;26.46;70.51
72712;SHT30;60828;40.292;17.998;2022-08-18T01:07:38;26.35;70.90
72712;SHT30;60828;40.292;17.998;2022-08-18T01:10:10;26.44;70.75
72712;SHT30;60828;40.292;17.998;2022-08-18T01:12:38;26.46;70.94
72712;SHT30;60828;40.292;17.998;2022-08-18T01:15:04;26.39;71.43
72712;SHT30;60828;40.292;17.998;2022-08-18T01:17:30;26.37;71.06
72712;SHT30;60828;40.292;17.998;2022-08-18T01:20:14;26.39;71.39
72712;SHT30;60828;40.292;17.998;2022-08-18T01:25:25;26.37;71.44
72712;SHT30;60828;40.292;17.998;2022-08-18T01:28:09;26.34;71.64
72712;SHT30;60828;40.292;17.998;2022-08-18T01:30:44;26.25;71.78
72712;SHT30;60828;40.292;17.998;2022-08-18T01:33:10;26.24;71.86
72712;SHT30;60828;40.292;17.998;2022-08-18T01:35:36;26.20;71.89
72712;SHT30;60828;40.292;17.998;2022-08-18T01:38:01;26.31;71.82
72712;SHT30;60828;40.292;17.998;2022-08-18T01:40:27;26.28;71.68
72712;SHT30;60828;40.292;17.998;2022-08-18T01:42:52;26.18;71.98
72712;SHT30;60828;40.292;17.998;2022-08-18T01:45:17;26.21;72.06
72712;SHT30;60828;40.292;17.998;2022-08-18T01:47:44;26.25;72.85
72712;SHT30;60828;40.292;17.998;2022-08-18T01:50:10;26.11;72.94
72712;SHT30;60828;40.292;17.998;2022-08-18T01:52:36;26.11;72.91
72712;SHT30;60828;40.292;17.998;2022-08-18T01:55:02;26.05;73.00
72712;SHT30;60828;40.292;17.998;2022-08-18T01:57:28;26.14;72.63
72712;SHT30;60828;40.292;17.998;2022-08-18T01:59:54;26.08;73.23
72712;SHT30;60828;40.292;17.998;2022-08-18T02:02:24;26.13;73.03
72712;SHT30;60828;40.292;17.998;2022-08-18T02:04:54;25.98;73.39
72712;SHT30;60828;40.292;17.998;2022-08-18T02:07:21;25.93;73.52
72712;SHT30;60828;40.292;17.998;2022-08-18T02:09:47;25.96;73.54
72712;SHT30;60828;40.292;17.998;2022-08-18T02:12:12;26.00;73.32
72712;SHT30;60828;40.292;17.998;2022-08-18T02:14:38;26.02;73.34
72712;SHT30;60828;40.292;17.998;2022-08-18T02:17:04;26.01;73.38
72712;SHT30;60828;40.292;17.998;2022-08-18T02:19:34;26.07;73.22
72712;SHT30;60828;40.292;17.998;2022-08-18T02:21:59;26.07;73.36
72712;SHT30;60828;40.292;17.998;2022-08-18T02:24:25;26.08;73.26
72712;SHT30;60828;40.292;17.998;2022-08-18T02:26:50;26.11;73.19
72712;SHT30;60828;40.292;17.998;2022-08-18T02:29:15;26.11;73.19
72712;SHT30;60828;40.292;17.998;2022-08-18T02:31:41;26.14;73.21
72712;SHT30;60828;40.292;17.998;2022-08-18T02:34:06;25.98;72.80
72712;SHT30;60828;40.292;17.998;2022-08-18T02:36:32;26.05;72.69
72712;SHT30;60828;40.292;17.998;2022-08-18T02:38:57;26.11;72.79
72712;SHT30;60828;40.292;17.998;2022-08-18T02:41:22;26.07;72.74
72712;SHT30;60828;40.292;17.998;2022-08-18T02:43:50;26.02;73.04
72712;SHT30;60828;40.292;17.998;2022-08-18T02:46:15;26.01;73.04
72712;SHT30;60828;40.292;17.998;2022-08-18T02:48:40;25.89;73.43
72712;SHT30;60828;40.292;17.998;2022-08-18T02:51:07;25.80;73.59
72712;SHT30;60828;40.292;17.998;2022-08-18T02:53:33;25.76;73.25
72712;SHT30;60828;40.292;17.998;2022-08-18T02:58:40;25.59;72.66
72712;SHT30;60828;40.292;17.998;2022-08-18T03:01:06;25.63;72.41
72712;SHT30;60828;40.292;17.998;2022-08-18T03:03:31;25.43;73.07
72712;SHT30;60828;40.292;17.998;2022-08-18T03:05:57;25.39;73.10
72712;SHT30;60828;40.292;17.998;2022-08-18T03:08:22;25.46;72.80
72712;SHT30;60828;40.292;17.998;2022-08-18T03:10:50;25.47;72.80
72712;SHT30;60828;40.292;17.998;2022-08-18T03:13:15;25.46;72.97
72712;SHT30;60828;40.292;17.998;2022-08-18T03:15:40;25.47;73.11
72712;SHT30;60828;40.292;17.998;2022-08-18T03:18:06;25.47;73.25
72712;SHT30;60828;40.292;17.998;2022-08-18T03:20:31;25.42;73.82
72712;SHT30;60828;40.292;17.998;2022-08-18T03:22:58;25.38;74.16
72712;SHT30;60828;40.292;17.998;2022-08-18T03:25:24;25.35;74.25
72712;SHT30;60828;40.292;17.998;2022-08-18T03:27:49;25.39;74.16
72712;SHT30;60828;40.292;17.998;2022-08-18T03:30:14;25.35;74.49
72712;SHT30;60828;40.292;17.998;2022-08-18T03:32:40;25.24;74.54
72712;SHT30;60828;40.292;17.998;2022-08-18T03:35:05;24.99;75.66
72712;SHT30;60828;40.292;17.998;2022-08-18T03:37:31;24.87;75.63
72712;SHT30;60828;40.292;17.998;2022-08-18T03:39:57;24.71;76.23
72712;SHT30;60828;40.292;17.998;2022-08-18T03:42:22;24.67;76.34
72712;SHT30;60828;40.292;17.998;2022-08-18T03:44:48;24.87;76.03
72712;SHT30;60828;40.292;17.998;2022-08-18T03:47:13;24.87;76.35
72712;SHT30;60828;40.292;17.998;2022-08-18T03:49:39;24.86;76.49
72712;SHT30;60828;40.292;17.998;2022-08-18T03:52:08;25.01;76.11
72712;SHT30;60828;40.292;17.998;2022-08-18T03:54:34;25.03;75.91
72712;SHT30;60828;40.292;17.998;2022-08-18T03:57:00;25.07;75.99
72712;SHT30;60828;40.292;17.998;2022-08-18T03:59:26;25.19;75.21
72712;SHT30;60828;40.292;17.998;2022-08-18T04:01:53;25.04;75.64
72712;SHT30;60828;40.292;17.998;2022-08-18T04:04:24;25.12;75.31
72712;SHT30;60828;40.292;17.998;2022-08-18T04:06:52;25.16;75.18
72712;SHT30;60828;40.292;17.998;2022-08-18T04:09:18;25.21;75.20
72712;SHT30;60828;40.292;17.998;2022-08-18T04:11:44;25.36;75.05
72712;SHT30;60828;40.292;17.998;2022-08-18T04:14:10;25.31;75.05
72712;SHT30;60828;40.292;17.998;2022-08-18T04:16:37;25.38;74.88
72712;SHT30;60828;40.292;17.998;2022-08-18T04:19:03;25.47;74.31
72712;SHT30;60828;40.292;17.998;2022-08-18T04:21:29;25.39;74.47
72712;SHT30;60828;40.292;17.998;2022-08-18T04:23:55;25.45;74.02
72712;SHT30;60828;40.292;17.998;2022-08-18T04:26:20;25.56;73.63
72712;SHT30;60828;40.292;17.998;2022-08-18T04:28:46;25.70;73.26
72712;SHT30;60828;40.292;17.998;2022-08-18T04:31:12;25.59;73.37
72712;SHT30;60828;40.292;17.998;2022-08-18T04:33:38;25.60;72.99
72712;SHT30;60828;40.292;17.998;2022-08-18T04:36:10;25.60;73.06
72712;SHT30;60828;40.292;17.998;2022-08-18T04:38:35;25.58;73.07
72712;SHT30;60828;40.292;17.998;2022-08-18T04:41:01;25.54;73.10
72712;SHT30;60828;40.292;17.998;2022-08-18T04:43:28;25.54;73.09
72712;SHT30;60828;40.292;17.998;2022-08-18T04:45:53;25.54;73.14
72712;SHT30;60828;40.292;17.998;2022-08-18T04:48:18;25.60;72.90
72712;SHT30;60828;40.292;17.998;2022-08-18T04:50:44;25.69;72.72
72712;SHT30;60828;40.292;17.998;2022-08-18T04:53:09;25.72;72.53
72712;SHT30;60828;40.292;17.998;2022-08-18T04:55:54;25.69;72.72
72712;SHT30;60828;40.292;17.998;2022-08-18T04:58:20;25.76;72.54
72712;SHT30;60828;40.292;17.998;2022-08-18T05:00:45;25.90;72.24
72712;SHT30;60828;40.292;17.998;2022-08-18T05:03:11;25.87;72.42
72712;SHT30;60828;40.292;17.998;2022-08-18T05:05:37;26.05;71.91
72712;SHT30;60828;40.292;17.998;2022-08-18T05:08:03;26.27;71.58
72712;SHT30;60828;40.292;17.998;2022-08-18T05:10:28;26.35;71.42
72712;SHT30;60828;40.292;17.998;2022-08-18T05:12:53;26.59;71.35
72712;SHT30;60828;40.292;17.998;2022-08-18T05:15:19;26.75;71.07
72712;SHT30;60828;40.292;17.998;2022-08-18T05:17:45;26.87;70.88
72712;SHT30;60828;40.292;17.998;2022-08-18T05:20:10;26.99;71.01
72712;SHT30;60828;40.292;17.998;2022-08-18T05:22:39;27.13;71.30
72712;SHT30;60828;40.292;17.998;2022-08-18T05:25:06;27.37;70.95
72712;SHT30;60828;40.292;17.998;2022-08-18T05:27:32;27.54;70.79
72712;SHT30;60828;40.292;17.998;2022-08-18T05:29:59;27.90;70.09
72712;SHT30;60828;40.292;17.998;2022-08-18T05:32:24;28.16;69.53
72712;SHT30;60828;40.292;17.998;2022-08-18T05:34:49;28.27;69.36
72712;SHT30;60828;40.292;17.998;2022-08-18T05:37:27;28.50;68.96
72712;SHT30;60828;40.292;17.998;2022-08-18T05:39:57;28.82;68.69
72712;SHT30;60828;40.292;17.998;2022-08-18T05:42:25;29.74;66.89
72712;SHT30;60828;40.292;17.998;2022-08-18T05:44:53;30.90;64.56
72712;SHT30;60828;40.292;17.998;2022-08-18T05:47:29;32.62;60.56
72712;SHT30;60828;40.292;17.998;2022-08-18T05:49:57;34.20;55.78
72712;SHT30;60828;40.292;17.998;2022-08-18T05:52:31;35.49;51.19
72712;SHT30;60828;40.292;17.998;2022-08-18T05:55:00;36.76;46.80
72712;SHT30;60828;40.292;17.998;2022-08-18T05:57:50;37.86;44.57
72712;SHT30;60828;40.292;17.998;2022-08-18T06:00:17;38.39;42.54
72712;SHT30;60828;40.292;17.998;2022-08-18T06:02:50;39.33;41.50
72712;SHT30;60828;40.292;17.998;2022-08-18T06:08:10;41.21;37.42
72712;SHT30;60828;40.292;17.998;2022-08-18T06:10:37;41.44;35.16
72712;SHT30;60828;40.292;17.998;2022-08-18T06:13:02;41.19;34.67
72712;SHT30;60828;40.292;17.998;2022-08-18T06:15:31;41.92;34.22
72712;SHT30;60828;40.292;17.998;2022-08-18T06:26:09;43.44;31.54
72712;SHT30;60828;40.292;17.998;2022-08-18T06:34:02;43.30;30.27
72712;SHT30;60828;40.292;17.998;2022-08-18T06:36:38;42.95;30.25
72712;SHT30;60828;40.292;17.998;2022-08-18T06:41:45;42.79;30.69
72712;SHT30;60828;40.292;17.998;2022-08-18T06:49:49;44.01;28.94
72712;SHT30;60828;40.292;17.998;2022-08-18T06:51:55;43.30;28.44
72712;SHT30;60828;40.292;17.998;2022-08-18T06:56:47;45.28;26.68
72712;SHT30;60828;40.292;17.998;2022-08-18T07:01:45;44.02;27.83
72712;SHT30;60828;40.292;17.998;2022-08-18T07:04:28;44.51;27.52
72712;SHT30;60828;40.292;17.998;2022-08-18T07:06:54;45.28;26.79
72712;SHT30;60828;40.292;17.998;2022-08-18T07:09:21;44.40;28.23
72712;SHT30;60828;40.292;17.998;2022-08-18T07:11:58;43.58;29.02
72712;SHT30;60828;40.292;17.998;2022-08-18T07:14:24;43.12;29.56
72712;SHT30;60828;40.292;17.998;2022-08-18T07:16:50;41.69;32.32
72712;SHT30;60828;40.292;17.998;2022-08-18T07:19:30;42.48;31.29
72712;SHT30;60828;40.292;17.998;2022-08-18T07:22:09;42.85;30.99
72712;SHT30;60828;40.292;17.998;2022-08-18T07:24:39;43.06;31.26
72712;SHT30;60828;40.292;17.998;2022-08-18T07:29:33;44.31;29.69
72712;SHT30;60828;40.292;17.998;2022-08-18T07:32:18;44.21;29.72
72712;SHT30;60828;40.292;17.998;2022-08-18T07:34:47;43.37;31.01
72712;SHT30;60828;40.292;17.998;2022-08-18T07:37:21;42.37;32.48
72712;SHT30;60828;40.292;17.998;2022-08-18T07:45:04;42.30;32.25
72712;SHT30;60828;40.292;17.998;2022-08-18T07:49:58;41.81;32.34
72712;SHT30;60828;40.292;17.998;2022-08-18T07:52:24;41.55;32.88
72712;SHT30;60828;40.292;17.998;2022-08-18T07:55:05;41.11;33.36
72712;SHT30;60828;40.292;17.998;2022-08-18T07:57:50;41.49;32.99
72712;SHT30;60828;40.292;17.998;2022-08-18T08:18:07;41.35;33.25
72712;SHT30;60828;40.292;17.998;2022-08-18T08:20:38;41.45;33.30
72712;SHT30;60828;40.292;17.998;2022-08-18T08:33:32;40.22;35.17
72712;SHT30;60828;40.292;17.998;2022-08-18T08:38:45;40.66;35.36
72712;SHT30;60828;40.292;17.998;2022-08-18T08:41:14;41.68;33.38
72712;SHT30;60828;40.292;17.998;2022-08-18T08:43:41;41.74;33.15
72712;SHT30;60828;40.292;17.998;2022-08-18T08:48:43;40.34;34.64
72712;SHT30;60828;40.292;17.998;2022-08-18T08:51:24;41.07;34.36
72712;SHT30;60828;40.292;17.998;2022-08-18T08:53:57;41.89;33.36
72712;SHT30;60828;40.292;17.998;2022-08-18T08:56:25;41.59;33.55
72712;SHT30;60828;40.292;17.998;2022-08-18T08:58:55;41.19;33.85
72712;SHT30;60828;40.292;17.998;2022-08-18T09:12:24;40.65;33.28
72712;SHT30;60828;40.292;17.998;2022-08-18T09:25:11;41.72;32.70
72712;SHT30;60828;40.292;17.998;2022-08-18T09:27:55;40.99;32.00
72712;SHT30;60828;40.292;17.998;2022-08-18T09:38:10;41.27;31.30
72712;SHT30;60828;40.292;17.998;2022-08-18T09:40:57;41.00;32.54
72712;SHT30;60828;40.292;17.998;2022-08-18T09:43:59;40.76;32.96
72712;SHT30;60828;40.292;17.998;2022-08-18T09:51:46;40.62;30.82
72712;SHT30;60828;40.292;17.998;2022-08-18T09:54:13;40.04;32.87
72712;SHT30;60828;40.292;17.998;2022-08-18T10:01:59;39.57;32.25
72712;SHT30;60828;40.292;17.998;2022-08-18T10:04:40;40.10;31.97
72712;SHT30;60828;40.292;17.998;2022-08-18T10:12:35;40.46;29.46
72712;SHT30;60828;40.292;17.998;2022-08-18T10:15:08;40.34;29.82
72712;SHT30;60828;40.292;17.998;2022-08-18T10:22:50;40.75;32.13
72712;SHT30;60828;40.292;17.998;2022-08-18T10:25:38;40.44;32.58
72712;SHT30;60828;40.292;17.998;2022-08-18T10:28:02;40.08;33.43
72712;SHT30;60828;40.292;17.998;2022-08-18T10:33:01;40.44;32.52
72712;SHT30;60828;40.292;17.998;2022-08-18T10:38:00;41.13;31.34
72712;SHT30;60828;40.292;17.998;2022-08-18T10:40:26;41.19;31.10
72712;SHT30;60828;40.292;17.998;2022-08-18T10:43:07;40.29;31.53
72712;SHT30;60828;40.292;17.998;2022-08-18T10:45:34;40.00;31.57
72712;SHT30;60828;40.292;17.998;2022-08-18T10:48:17;39.69;32.62
72712;SHT30;60828;40.292;17.998;2022-08-18T10:55:58;40.19;32.02
72712;SHT30;60828;40.292;17.998;2022-08-18T11:06:03;38.82;32.28
72712;SHT30;60828;40.292;17.998;2022-08-18T11:08:30;39.14;31.88
72712;SHT30;60828;40.292;17.998;2022-08-18T11:11:04;39.43;31.46
72712;SHT30;60828;40.292;17.998;2022-08-18T11:13:31;39.49;31.09
72712;SHT30;60828;40.292;17.998;2022-08-18T11:16:08;39.78;30.97
72712;SHT30;60828;40.292;17.998;2022-08-18T11:18:40;39.67;30.96
72712;SHT30;60828;40.292;17.998;2022-08-18T11:26:30;39.73;29.81
72712;SHT30;60828;40.292;17.998;2022-08-18T11:28:56;39.93;29.94
72712;SHT30;60828;40.292;17.998;2022-08-18T11:31:21;40.24;29.93
72712;SHT30;60828;40.292;17.998;2022-08-18T11:33:47;40.76;29.12
72712;SHT30;60828;40.292;17.998;2022-08-18T11:36:12;41.09;29.09
72712;SHT30;60828;40.292;17.998;2022-08-18T11:38:39;41.28;28.77
72712;SHT30;60828;40.292;17.998;2022-08-18T11:41:47;41.54;28.65
72712;SHT30;60828;40.292;17.998;2022-08-18T11:43:54;41.15;29.06
72712;SHT30;60828;40.292;17.998;2022-08-18T11:48:49;41.03;28.34
72712;SHT30;60828;40.292;17.998;2022-08-18T12:03:57;38.71;36.08
72712;SHT30;60828;40.292;17.998;2022-08-18T12:11:25;38.39;35.98
72712;SHT30;60828;40.292;17.998;2022-08-18T12:13:59;38.90;35.59
72712;SHT30;60828;40.292;17.998;2022-08-18T12:18:57;38.32;36.20
72712;SHT30;60828;40.292;17.998;2022-08-18T12:21:23;38.22;36.04
72712;SHT30;60828;40.292;17.998;2022-08-18T12:23:51;38.61;35.11
72712;SHT30;60828;40.292;17.998;2022-08-18T12:26:17;38.49;35.11
72712;SHT30;60828;40.292;17.998;2022-08-18T12:28:43;38.61;35.15
72712;SHT30;60828;40.292;17.998;2022-08-18T12:31:08;38.57;34.87
72712;SHT30;60828;40.292;17.998;2022-08-18T12:33:34;38.79;35.26
72712;SHT30;60828;40.292;17.998;2022-08-18T12:36:00;38.56;35.61
72712;SHT30;60828;40.292;17.998;2022-08-18T12:38:25;38.71;35.24
72712;SHT30;60828;40.292;17.998;2022-08-18T12:40:51;39.04;35.13
72712;SHT30;60828;40.292;17.998;2022-08-18T12:43:17;38.77;34.88
72712;SHT30;60828;40.292;17.998;2022-08-18T12:45:42;38.63;35.23
72712;SHT30;60828;40.292;17.998;2022-08-18T12:48:08;39.35;34.62
72712;SHT30;60828;40.292;17.998;2022-08-18T12:50:34;38.61;35.37
72712;SHT30;60828;40.292;17.998;2022-08-18T12:52:59;38.27;35.51
72712;SHT30;60828;40.292;17.998;2022-08-18T12:55:32;38.90;35.27
72712;SHT30;60828;40.292;17.998;2022-08-18T12:57:58;39.36;34.01
72712;SHT30;60828;40.292;17.998;2022-08-18T13:00:24;38.92;34.48
72712;SHT30;60828;40.292;17.998;2022-08-18T13:02:49;38.77;34.55
72712;SHT30;60828;40.292;17.998;2022-08-18T13:05:16;38.41;34.95
72712;SHT30;60828;40.292;17.998;2022-08-18T13:07:42;38.39;35.06
72712;SHT30;60828;40.292;17.998;2022-08-18T13:10:08;38.74;34.96
72712;SHT30;60828;40.292;17.998;2022-08-18T13:12:33;38.92;34.28
72712;SHT30;60828;40.292;17.998;2022-08-18T13:14:59;38.99;33.62
72712;SHT30;60828;40.292;17.998;2022-08-18T13:17:24;39.22;33.08
72712;SHT30;60828;40.292;17.998;2022-08-18T13:19:50;38.90;33.61
72712;SHT30;60828;40.292;17.998;2022-08-18T13:22:15;38.41;34.05
72712;SHT30;60828;40.292;17.998;2022-08-18T13:24:41;38.60;34.14
72712;SHT30;60828;40.292;17.998;2022-08-18T13:27:06;38.51;34.67
72712;SHT30;60828;40.292;17.998;2022-08-18T13:29:32;38.56;34.42
72712;SHT30;60828;40.292;17.998;2022-08-18T13:31:58;38.78;34.42
72712;SHT30;60828;40.292;17.998;2022-08-18T13:34:26;38.91;34.24
72712;SHT30;60828;40.292;17.998;2022-08-18T13:36:52;39.23;34.16
72712;SHT30;60828;40.292;17.998;2022-08-18T13:39:18;39.29;34.09
72712;SHT30;60828;40.292;17.998;2022-08-18T13:41:44;38.70;34.28
72712;SHT30;60828;40.292;17.998;2022-08-18T13:44:10;38.82;34.17
72712;SHT30;60828;40.292;17.998;2022-08-18T13:46:37;39.14;33.75
72712;SHT30;60828;40.292;17.998;2022-08-18T13:49:09;39.16;33.82
72712;SHT30;60828;40.292;17.998;2022-08-18T13:51:35;38.97;33.67
72712;SHT30;60828;40.292;17.998;2022-08-18T13:54:01;38.61;33.80
72712;SHT30;60828;40.292;17.998;2022-08-18T13:56:26;38.39;33.95
72712;SHT30;60828;40.292;17.998;2022-08-18T13:58:51;38.03;34.41
72712;SHT30;60828;40.292;17.998;2022-08-18T14:01:17;38.41;34.11
72712;SHT30;60828;40.292;17.998;2022-08-18T14:03:43;38.26;34.08
72712;SHT30;60828;40.292;17.998;2022-08-18T14:06:14;37.90;34.62
72712;SHT30;60828;40.292;17.998;2022-08-18T14:08:40;37.96;34.97
72712;SHT30;60828;40.292;17.998;2022-08-18T14:11:05;38.36;34.80
72712;SHT30;60828;40.292;17.998;2022-08-18T14:13:31;38.27;35.28
72712;SHT30;60828;40.292;17.998;2022-08-18T14:15:57;38.13;35.54
72712;SHT30;60828;40.292;17.998;2022-08-18T14:18:23;38.26;35.65
72712;SHT30;60828;40.292;17.998;2022-08-18T14:20:49;37.88;35.98
72712;SHT30;60828;40.292;17.998;2022-08-18T14:23:33;37.33;36.29
72712;SHT30;60828;40.292;17.998;2022-08-18T14:26:17;37.45;36.37
72712;SHT30;60828;40.292;17.998;2022-08-18T14:29:01;37.55;36.25
72712;SHT30;60828;40.292;17.998;2022-08-18T14:31:26;37.42;36.00
72712;SHT30;60828;40.292;17.998;2022-08-18T14:33:52;37.24;36.24
72712;SHT30;60828;40.292;17.998;2022-08-18T14:36:17;37.11;36.23
72712;SHT30;60828;40.292;17.998;2022-08-18T14:38:43;37.21;35.85
72712;SHT30;60828;40.292;17.998;2022-08-18T14:41:09;37.30;34.73
72712;SHT30;60828;40.292;17.998;2022-08-18T14:43:35;37.10;34.60
72712;SHT30;60828;40.292;17.998;2022-08-18T14:46:01;36.99;34.87
72712;SHT30;60828;40.292;17.998;2022-08-18T14:48:27;36.80;34.11
72712;SHT30;60828;40.292;17.998;2022-08-18T14:50:53;36.69;34.17
72712;SHT30;60828;40.292;17.998;2022-08-18T14:53:20;36.66;33.82
72712;SHT30;60828;40.292;17.998;2022-08-18T14:55:46;36.72;34.25
72712;SHT30;60828;40.292;17.998;2022-08-18T14:58:12;36.49;34.32
72712;SHT30;60828;40.292;17.998;2022-08-18T15:00:37;36.49;34.95
72712;SHT30;60828;40.292;17.998;2022-08-18T15:03:03;36.48;35.52
72712;SHT30;60828;40.292;17.998;2022-08-18T15:05:30;36.39;36.07
72712;SHT30;60828;40.292;17.998;2022-08-18T15:07:56;36.34;36.85
72712;SHT30;60828;40.292;17.998;2022-08-18T15:10:23;36.24;36.82
72712;SHT30;60828;40.292;17.998;2022-08-18T15:12:48;36.00;36.18
72712;SHT30;60828;40.292;17.998;2022-08-18T15:15:14;35.91;35.76
72712;SHT30;60828;40.292;17.998;2022-08-18T15:17:39;35.89;37.69
72712;SHT30;60828;40.292;17.998;2022-08-18T15:20:05;35.62;39.68
72712;SHT30;60828;40.292;17.998;2022-08-18T15:22:31;35.69;39.30
72712;SHT30;60828;40.292;17.998;2022-08-18T15:25:14;35.53;39.47
72712;SHT30;60828;40.292;17.998;2022-08-18T15:27:59;35.33;40.74
72712;SHT30;60828;40.292;17.998;2022-08-18T15:30:24;35.59;40.49
72712;SHT30;60828;40.292;17.998;2022-08-18T15:32:50;35.56;40.26
72712;SHT30;60828;40.292;17.998;2022-08-18T15:35:15;35.43;41.70
72712;SHT30;60828;40.292;17.998;2022-08-18T15:37:42;35.39;42.28
72712;SHT30;60828;40.292;17.998;2022-08-18T15:40:09;35.11;42.39
72712;SHT30;60828;40.292;17.998;2022-08-18T15:42:37;34.70;43.25
72712;SHT30;60828;40.292;17.998;2022-08-18T15:45:02;35.05;43.28
72712;SHT30;60828;40.292;17.998;2022-08-18T15:47:28;35.18;44.54
72712;SHT30;60828;40.292;17.998;2022-08-18T15:49:55;35.29;45.53
72712;SHT30;60828;40.292;17.998;2022-08-18T15:52:21;35.18;45.74
72712;SHT30;60828;40.292;17.998;2022-08-18T15:54:46;34.81;46.02
72712;SHT30;60828;40.292;17.998;2022-08-18T15:57:12;34.77;47.04
72712;SHT30;60828;40.292;17.998;2022-08-18T15:59:38;34.80;47.34
72712;SHT30;60828;40.292;17.998;2022-08-18T16:02:03;34.56;47.62
72712;SHT30;60828;40.292;17.998;2022-08-18T16:04:29;34.23;48.65
72712;SHT30;60828;40.292;17.998;2022-08-18T16:06:54;33.99;48.86
72712;SHT30;60828;40.292;17.998;2022-08-18T16:09:20;33.91;50.02
72712;SHT30;60828;40.292;17.998;2022-08-18T16:11:45;34.01;50.14
72712;SHT30;60828;40.292;17.998;2022-08-18T16:14:11;33.95;50.40
72712;SHT30;60828;40.292;17.998;2022-08-18T16:16:37;33.91;50.20
72712;SHT30;60828;40.292;17.998;2022-08-18T16:19:03;33.81;49.76
72712;SHT30;60828;40.292;17.998;2022-08-18T16:21:28;33.59;50.44
72712;SHT30;60828;40.292;17.998;2022-08-18T16:23:54;33.69;50.58
72712;SHT30;60828;40.292;17.998;2022-08-18T16:26:20;33.65;51.03
72712;SHT30;60828;40.292;17.998;2022-08-18T16:28:46;33.69;50.91
72712;SHT30;60828;40.292;17.998;2022-08-18T16:31:12;33.69;50.40
72712;SHT30;60828;40.292;17.998;2022-08-18T16:33:41;33.48;51.13
72712;SHT30;60828;40.292;17.998;2022-08-18T16:36:07;33.53;51.43
72712;SHT30;60828;40.292;17.998;2022-08-18T16:38:33;33.47;50.83
72712;SHT30;60828;40.292;17.998;2022-08-18T16:41:06;33.47;49.48
72712;SHT30;60828;40.292;17.998;2022-08-18T16:43:32;33.26;49.71
72712;SHT30;60828;40.292;17.998;2022-08-18T16:45:58;33.06;50.97
72712;SHT30;60828;40.292;17.998;2022-08-18T16:48:26;32.99;51.69
72712;SHT30;60828;40.292;17.998;2022-08-18T16:50:52;33.02;51.65
72712;SHT30;60828;40.292;17.998;2022-08-18T16:53:17;32.99;52.53
72712;SHT30;60828;40.292;17.998;2022-08-18T16:55:43;33.00;51.49
72712;SHT30;60828;40.292;17.998;2022-08-18T16:58:08;32.99;51.17
72712;SHT30;60828;40.292;17.998;2022-08-18T17:00:53;32.90;51.92
72712;SHT30;60828;40.292;17.998;2022-08-18T17:03:38;32.87;51.50
72712;SHT30;60828;40.292;17.998;2022-08-18T17:06:25;32.78;52.39
72712;SHT30;60828;40.292;17.998;2022-08-18T17:08:52;32.66;53.34
72712;SHT30;60828;40.292;17.998;2022-08-18T17:11:17;32.59;53.22
72712;SHT30;60828;40.292;17.998;2022-08-18T17:13:43;32.41;53.65
72712;SHT30;60828;40.292;17.998;2022-08-18T17:16:09;32.39;53.67
72712;SHT30;60828;40.292;17.998;2022-08-18T17:18:35;32.37;53.99
72712;SHT30;60828;40.292;17.998;2022-08-18T17:21:01;32.34;54.63
72712;SHT30;60828;40.292;17.998;2022-08-18T17:23:28;32.25;54.92
72712;SHT30;60828;40.292;17.998;2022-08-18T17:25:54;32.13;55.29
72712;SHT30;60828;40.292;17.998;2022-08-18T17:28:19;32.08;55.04
72712;SHT30;60828;40.292;17.998;2022-08-18T17:30:47;32.01;55.35
72712;SHT30;60828;40.292;17.998;2022-08-18T17:33:21;31.96;55.63
72712;SHT30;60828;40.292;17.998;2022-08-18T17:35:48;31.86;56.17
72712;SHT30;60828;40.292;17.998;2022-08-18T17:40:44;31.80;56.38
72712;SHT30;60828;40.292;17.998;2022-08-18T17:43:16;31.73;56.57
72712;SHT30;60828;40.292;17.998;2022-08-18T17:45:42;31.86;56.55
72712;SHT30;60828;40.292;17.998;2022-08-18T17:48:13;31.76;56.74
72712;SHT30;60828;40.292;17.998;2022-08-18T17:50:44;31.69;56.95
72712;SHT30;60828;40.292;17.998;2022-08-18T17:53:30;31.67;57.30
72712;SHT30;60828;40.292;17.998;2022-08-18T17:56:00;31.70;57.38
72712;SHT30;60828;40.292;17.998;2022-08-18T18:01:13;31.52;58.09
72712;SHT30;60828;40.292;17.998;2022-08-18T18:03:39;31.47;58.11
72712;SHT30;60828;40.292;17.998;2022-08-18T18:06:48;31.41;57.80
72712;SHT30;60828;40.292;17.998;2022-08-18T18:09:09;31.22;58.78
72712;SHT30;60828;40.292;17.998;2022-08-18T18:11:36;31.19;59.26
72712;SHT30;60828;40.292;17.998;2022-08-18T18:19:23;31.15;59.92
72712;SHT30;60828;40.292;17.998;2022-08-18T18:22:00;31.01;60.73
72712;SHT30;60828;40.292;17.998;2022-08-18T18:24:33;31.02;61.23
72712;SHT30;60828;40.292;17.998;2022-08-18T18:26:59;30.97;61.04